sensor_id;sensor_type;location;lat;lon;timestamp;P1;durP1;ratioP1;P2;durP2;ratioP2
73456;SDS011;61691;53.072;6.582;2023-05-07T00:00:34;27.40;;;15.07;;
73456;SDS011;61691;53.072;6.582;2023-05-07T00:03:01;28.58;;;15.30;;
73456;SDS011;61691;53.072;6.582;2023-05-07T00:05:28;26.83;;;15.48;;
73456;SDS011;61691;53.072;6.582;2023-05-07T00:07:55;26.48;;;15.38;;
73456;SDS011;61691;53.072;6.582;2023-05-07T00:10:25;28.13;;;15.48;;
73456;SDS011;61691;53.072;6.582;2023-05-07T00:12:52;26.70;;;14.98;;
73456;SDS011;61691;53.072;6.582;2023-05-07T00:15:18;29.17;;;16.65;;
73456;SDS011;61691;53.072;6.582;2023-05-07T00:17:46;28.58;;;16.13;;
73456;SDS011;61691;53.072;6.582;2023-05-07T00:20:12;31.45;;;17.08;;
73456;SDS011;61691;53.072;6.582;2023-05-07T00:22:39;28.42;;;15.88;;
73456;SDS011;61691;53.072;6.582;2023-05-07T00:25:06;31.05;;;16.85;;
73456;SDS011;61691;53.072;6.582;2023-05-07T00:27:33;32.33;;;16.25;;
73456;SDS011;61691;53.072;6.582;2023-05-07T00:30:00;27.98;;;14.90;;
73456;SDS011;61691;53.072;6.582;2023-05-07T00:32:26;27.38;;;15.40;;
73456;SDS011;61691;53.072;6.582;2023-05-07T00:34:53;30.60;;;17.15;;
73456;SDS011;61691;53.072;6.582;2023-05-07T00:37:20;28.70;;;16.63;;
73456;SDS011;61691;53.072;6.582;2023-05-07T00:39:47;30.70;;;17.92;;
73456;SDS011;61691;53.072;6.582;2023-05-07T00:42:13;25.77;;;15.20;;
73456;SDS011;61691;53.072;6.582;2023-05-07T00:44:41;28.83;;;16.08;;
73456;SDS011;61691;53.072;6.582;2023-05-07T00:47:08;30.55;;;17.45;;
73456;SDS011;61691;53.072;6.582;2023-05-07T00:49:38;27.75;;;16.48;;
73456;SDS011;61691;53.072;6.582;2023-05-07T00:52:07;31.80;;;15.68;;
73456;SDS011;61691;53.072;6.582;2023-05-07T00:54:37;28.38;;;16.90;;
73456;SDS011;61691;53.072;6.582;2023-05-07T00:57:04;29.85;;;17.35;;
73456;SDS011;61691;53.072;6.582;2023-05-07T00:59:32;29.23;;;16.70;;
73456;SDS011;61691;53.072;6.582;2023-05-07T01:01:59;31.35;;;17.27;;
73456;SDS011;61691;53.072;6.582;2023-05-07T01:04:26;29.92;;;16.83;;
73456;SDS011;61691;53.072;6.582;2023-05-07T01:06:55;29.92;;;17.30;;
73456;SDS011;61691;53.072;6.582;2023-05-07T01:09:23;30.10;;;16.98;;
73456;SDS011;61691;53.072;6.582;2023-05-07T01:11:51;29.45;;;17.42;;
73456;SDS011;61691;53.072;6.582;2023-05-07T01:14:18;31.55;;;17.90;;
73456;SDS011;61691;53.072;6.582;2023-05-07T01:16:47;31.20;;;17.77;;
73456;SDS011;61691;53.072;6.582;2023-05-07T01:19:14;30.88;;;17.73;;
73456;SDS011;61691;53.072;6.582;2023-05-07T01:21:45;31.60;;;16.85;;
73456;SDS011;61691;53.072;6.582;2023-05-07T01:24:14;31.17;;;18.35;;
73456;SDS011;61691;53.072;6.582;2023-05-07T01:26:42;32.50;;;17.92;;
73456;SDS011;61691;53.072;6.582;2023-05-07T01:29:10;30.73;;;17.70;;
73456;SDS011;61691;53.072;6.582;2023-05-07T01:31:37;29.13;;;18.17;;
73456;SDS011;61691;53.072;6.582;2023-05-07T01:34:04;31.45;;;17.40;;
73456;SDS011;61691;53.072;6.582;2023-05-07T01:36:34;33.92;;;17.88;;
73456;SDS011;61691;53.072;6.582;2023-05-07T01:39:05;30.13;;;16.58;;
73456;SDS011;61691;53.072;6.582;2023-05-07T01:41:32;29.70;;;17.90;;
73456;SDS011;61691;53.072;6.582;2023-05-07T01:43:59;28.08;;;17.85;;
73456;SDS011;61691;53.072;6.582;2023-05-07T01:46:27;30.52;;;18.58;;
73456;SDS011;61691;53.072;6.582;2023-05-07T01:48:55;28.35;;;17.10;;
73456;SDS011;61691;53.072;6.582;2023-05-07T01:51:21;31.95;;;17.98;;
73456;SDS011;61691;53.072;6.582;2023-05-07T01:53:49;31.27;;;17.77;;
73456;SDS011;61691;53.072;6.582;2023-05-07T01:56:17;33.35;;;19.52;;
73456;SDS011;61691;53.072;6.582;2023-05-07T01:58:44;30.80;;;18.23;;
73456;SDS011;61691;53.072;6.582;2023-05-07T02:01:12;32.17;;;19.25;;
73456;SDS011;61691;53.072;6.582;2023-05-07T02:03:40;31.90;;;19.30;;
73456;SDS011;61691;53.072;6.582;2023-05-07T02:06:08;35.75;;;20.33;;
73456;SDS011;61691;53.072;6.582;2023-05-07T02:08:34;31.67;;;19.40;;
73456;SDS011;61691;53.072;6.582;2023-05-07T02:11:01;33.17;;;20.63;;
73456;SDS011;61691;53.072;6.582;2023-05-07T02:13:29;34.10;;;21.75;;
73456;SDS011;61691;53.072;6.582;2023-05-07T02:15:57;34.88;;;21.55;;
73456;SDS011;61691;53.072;6.582;2023-05-07T02:18:23;33.75;;;20.67;;
73456;SDS011;61691;53.072;6.582;2023-05-07T02:20:50;31.73;;;20.42;;
73456;SDS011;61691;53.072;6.582;2023-05-07T02:23:17;32.42;;;20.20;;
73456;SDS011;61691;53.072;6.582;2023-05-07T02:25:44;34.55;;;20.67;;
73456;SDS011;61691;53.072;6.582;2023-05-07T02:28:10;35.28;;;21.65;;
73456;SDS011;61691;53.072;6.582;2023-05-07T02:30:38;34.10;;;21.80;;
73456;SDS011;61691;53.072;6.582;2023-05-07T02:33:04;34.95;;;22.02;;
73456;SDS011;61691;53.072;6.582;2023-05-07T02:35:32;35.72;;;21.55;;
73456;SDS011;61691;53.072;6.582;2023-05-07T02:37:59;35.40;;;21.40;;
73456;SDS011;61691;53.072;6.582;2023-05-07T02:40:25;36.08;;;21.90;;
73456;SDS011;61691;53.072;6.582;2023-05-07T02:42:52;35.65;;;22.33;;
73456;SDS011;61691;53.072;6.582;2023-05-07T02:45:19;36.55;;;22.20;;
73456;SDS011;61691;53.072;6.582;2023-05-07T02:47:46;35.13;;;21.10;;
73456;SDS011;61691;53.072;6.582;2023-05-07T02:50:13;35.53;;;20.67;;
73456;SDS011;61691;53.072;6.582;2023-05-07T02:52:40;36.53;;;22.65;;
73456;SDS011;61691;53.072;6.582;2023-05-07T02:55:07;39.80;;;23.50;;
73456;SDS011;61691;53.072;6.582;2023-05-07T02:57:34;38.95;;;22.52;;
73456;SDS011;61691;53.072;6.582;2023-05-07T03:00:09;37.40;;;22.98;;
73456;SDS011;61691;53.072;6.582;2023-05-07T03:02:37;36.40;;;23.15;;
73456;SDS011;61691;53.072;6.582;2023-05-07T03:05:04;38.97;;;23.63;;
73456;SDS011;61691;53.072;6.582;2023-05-07T03:07:31;37.75;;;23.15;;
73456;SDS011;61691;53.072;6.582;2023-05-07T03:09:58;38.00;;;23.30;;
73456;SDS011;61691;53.072;6.582;2023-05-07T03:12:26;38.30;;;23.67;;
73456;SDS011;61691;53.072;6.582;2023-05-07T03:14:53;41.33;;;23.70;;
73456;SDS011;61691;53.072;6.582;2023-05-07T03:17:20;41.10;;;24.63;;
73456;SDS011;61691;53.072;6.582;2023-05-07T03:19:47;40.85;;;24.75;;
73456;SDS011;61691;53.072;6.582;2023-05-07T03:22:13;39.90;;;24.27;;
73456;SDS011;61691;53.072;6.582;2023-05-07T03:24:41;42.83;;;25.52;;
73456;SDS011;61691;53.072;6.582;2023-05-07T03:27:08;38.92;;;23.55;;
73456;SDS011;61691;53.072;6.582;2023-05-07T03:29:34;38.00;;;23.40;;
73456;SDS011;61691;53.072;6.582;2023-05-07T03:32:01;40.88;;;23.65;;
73456;SDS011;61691;53.072;6.582;2023-05-07T03:34:28;39.72;;;23.83;;
73456;SDS011;61691;53.072;6.582;2023-05-07T03:36:54;42.05;;;25.20;;
73456;SDS011;61691;53.072;6.582;2023-05-07T03:39:22;40.72;;;24.00;;
73456;SDS011;61691;53.072;6.582;2023-05-07T03:41:49;40.45;;;24.85;;
73456;SDS011;61691;53.072;6.582;2023-05-07T03:44:15;39.72;;;23.80;;
73456;SDS011;61691;53.072;6.582;2023-05-07T03:46:42;38.97;;;22.92;;
73456;SDS011;61691;53.072;6.582;2023-05-07T03:49:09;43.15;;;25.88;;
73456;SDS011;61691;53.072;6.582;2023-05-07T03:51:36;39.53;;;24.27;;
73456;SDS011;61691;53.072;6.582;2023-05-07T03:54:02;41.17;;;24.13;;
73456;SDS011;61691;53.072;6.582;2023-05-07T03:56:29;42.85;;;25.77;;
73456;SDS011;61691;53.072;6.582;2023-05-07T03:58:57;38.45;;;23.40;;
73456;SDS011;61691;53.072;6.582;2023-05-07T04:01:24;41.03;;;25.00;;
73456;SDS011;61691;53.072;6.582;2023-05-07T04:03:51;41.95;;;25.05;;
73456;SDS011;61691;53.072;6.582;2023-05-07T04:06:17;40.78;;;23.58;;
73456;SDS011;61691;53.072;6.582;2023-05-07T04:08:44;39.28;;;24.25;;
73456;SDS011;61691;53.072;6.582;2023-05-07T04:11:11;39.60;;;24.27;;
73456;SDS011;61691;53.072;6.582;2023-05-07T04:13:38;41.35;;;23.77;;
73456;SDS011;61691;53.072;6.582;2023-05-07T04:16:05;36.22;;;22.70;;
73456;SDS011;61691;53.072;6.582;2023-05-07T04:18:32;35.55;;;23.58;;
73456;SDS011;61691;53.072;6.582;2023-05-07T04:20:58;41.53;;;23.38;;
73456;SDS011;61691;53.072;6.582;2023-05-07T04:23:25;38.17;;;23.13;;
73456;SDS011;61691;53.072;6.582;2023-05-07T04:25:52;39.25;;;24.38;;
73456;SDS011;61691;53.072;6.582;2023-05-07T04:28:20;37.67;;;22.85;;
73456;SDS011;61691;53.072;6.582;2023-05-07T04:30:47;37.58;;;22.95;;
73456;SDS011;61691;53.072;6.582;2023-05-07T04:33:14;37.42;;;22.55;;
73456;SDS011;61691;53.072;6.582;2023-05-07T04:35:43;36.22;;;22.55;;
73456;SDS011;61691;53.072;6.582;2023-05-07T04:38:10;38.33;;;22.52;;
73456;SDS011;61691;53.072;6.582;2023-05-07T04:40:37;37.28;;;22.02;;
73456;SDS011;61691;53.072;6.582;2023-05-07T04:43:05;36.35;;;20.98;;
73456;SDS011;61691;53.072;6.582;2023-05-07T04:45:31;35.00;;;21.33;;
73456;SDS011;61691;53.072;6.582;2023-05-07T04:47:58;35.13;;;21.95;;
73456;SDS011;61691;53.072;6.582;2023-05-07T04:50:25;36.63;;;21.63;;
73456;SDS011;61691;53.072;6.582;2023-05-07T04:52:52;33.47;;;21.73;;
73456;SDS011;61691;53.072;6.582;2023-05-07T04:55:18;33.95;;;20.60;;
73456;SDS011;61691;53.072;6.582;2023-05-07T04:57:45;38.08;;;22.98;;
73456;SDS011;61691;53.072;6.582;2023-05-07T05:00:12;33.33;;;21.15;;
73456;SDS011;61691;53.072;6.582;2023-05-07T05:02:42;36.20;;;21.27;;
73456;SDS011;61691;53.072;6.582;2023-05-07T05:05:09;35.88;;;22.83;;
73456;SDS011;61691;53.072;6.582;2023-05-07T05:07:36;34.53;;;20.45;;
73456;SDS011;61691;53.072;6.582;2023-05-07T05:10:04;36.20;;;21.95;;
73456;SDS011;61691;53.072;6.582;2023-05-07T05:12:32;33.60;;;20.38;;
73456;SDS011;61691;53.072;6.582;2023-05-07T05:14:58;35.92;;;22.70;;
73456;SDS011;61691;53.072;6.582;2023-05-07T05:17:25;36.38;;;22.05;;
73456;SDS011;61691;53.072;6.582;2023-05-07T05:19:51;34.63;;;21.80;;
73456;SDS011;61691;53.072;6.582;2023-05-07T05:22:18;35.95;;;20.85;;
73456;SDS011;61691;53.072;6.582;2023-05-07T05:24:45;37.33;;;21.15;;
73456;SDS011;61691;53.072;6.582;2023-05-07T05:27:11;31.55;;;19.77;;
73456;SDS011;61691;53.072;6.582;2023-05-07T05:29:38;34.22;;;20.75;;
73456;SDS011;61691;53.072;6.582;2023-05-07T05:32:04;30.92;;;19.73;;
73456;SDS011;61691;53.072;6.582;2023-05-07T05:34:31;31.20;;;18.67;;
73456;SDS011;61691;53.072;6.582;2023-05-07T05:36:59;34.45;;;18.75;;
73456;SDS011;61691;53.072;6.582;2023-05-07T05:39:26;34.03;;;19.77;;
73456;SDS011;61691;53.072;6.582;2023-05-07T05:41:52;30.25;;;18.67;;
73456;SDS011;61691;53.072;6.582;2023-05-07T05:44:19;31.38;;;20.08;;
73456;SDS011;61691;53.072;6.582;2023-05-07T05:46:46;31.02;;;18.67;;
73456;SDS011;61691;53.072;6.582;2023-05-07T05:49:13;31.40;;;18.77;;
73456;SDS011;61691;53.072;6.582;2023-05-07T05:51:40;31.75;;;19.70;;
73456;SDS011;61691;53.072;6.582;2023-05-07T05:54:06;30.25;;;17.55;;
73456;SDS011;61691;53.072;6.582;2023-05-07T05:56:33;32.05;;;18.23;;
73456;SDS011;61691;53.072;6.582;2023-05-07T05:59:00;28.52;;;17.27;;
73456;SDS011;61691;53.072;6.582;2023-05-07T06:01:27;29.38;;;18.70;;
73456;SDS011;61691;53.072;6.582;2023-05-07T06:03:53;31.17;;;19.08;;
73456;SDS011;61691;53.072;6.582;2023-05-07T06:06:20;29.77;;;17.13;;
73456;SDS011;61691;53.072;6.582;2023-05-07T06:08:47;30.35;;;18.25;;
73456;SDS011;61691;53.072;6.582;2023-05-07T06:11:13;30.45;;;18.08;;
73456;SDS011;61691;53.072;6.582;2023-05-07T06:13:40;28.58;;;17.45;;
73456;SDS011;61691;53.072;6.582;2023-05-07T06:16:07;31.55;;;18.55;;
73456;SDS011;61691;53.072;6.582;2023-05-07T06:18:34;28.95;;;17.83;;
73456;SDS011;61691;53.072;6.582;2023-05-07T06:21:02;29.35;;;18.70;;
73456;SDS011;61691;53.072;6.582;2023-05-07T06:23:29;27.88;;;17.65;;
73456;SDS011;61691;53.072;6.582;2023-05-07T06:25:55;29.65;;;18.48;;
73456;SDS011;61691;53.072;6.582;2023-05-07T06:28:22;29.63;;;18.38;;
73456;SDS011;61691;53.072;6.582;2023-05-07T06:30:49;28.45;;;17.20;;
73456;SDS011;61691;53.072;6.582;2023-05-07T06:33:16;29.70;;;19.08;;
73456;SDS011;61691;53.072;6.582;2023-05-07T06:35:43;29.10;;;18.35;;
73456;SDS011;61691;53.072;6.582;2023-05-07T06:38:09;30.80;;;17.92;;
73456;SDS011;61691;53.072;6.582;2023-05-07T06:40:36;29.13;;;18.17;;
73456;SDS011;61691;53.072;6.582;2023-05-07T06:43:03;31.02;;;17.50;;
73456;SDS011;61691;53.072;6.582;2023-05-07T06:45:30;28.75;;;17.02;;
73456;SDS011;61691;53.072;6.582;2023-05-07T06:47:57;26.90;;;16.48;;
73456;SDS011;61691;53.072;6.582;2023-05-07T06:50:23;29.02;;;17.70;;
73456;SDS011;61691;53.072;6.582;2023-05-07T06:52:50;28.42;;;17.70;;
73456;SDS011;61691;53.072;6.582;2023-05-07T06:55:17;30.30;;;17.73;;
73456;SDS011;61691;53.072;6.582;2023-05-07T06:57:45;29.92;;;18.08;;
73456;SDS011;61691;53.072;6.582;2023-05-07T07:00:12;28.80;;;17.85;;
73456;SDS011;61691;53.072;6.582;2023-05-07T07:02:39;28.33;;;17.30;;
73456;SDS011;61691;53.072;6.582;2023-05-07T07:05:06;29.38;;;17.85;;
73456;SDS011;61691;53.072;6.582;2023-05-07T07:07:33;28.75;;;17.23;;
73456;SDS011;61691;53.072;6.582;2023-05-07T07:10:00;28.70;;;17.45;;
73456;SDS011;61691;53.072;6.582;2023-05-07T07:12:27;30.00;;;18.40;;
73456;SDS011;61691;53.072;6.582;2023-05-07T07:14:56;29.60;;;17.75;;
73456;SDS011;61691;53.072;6.582;2023-05-07T07:17:22;28.50;;;17.58;;
73456;SDS011;61691;53.072;6.582;2023-05-07T07:19:49;30.15;;;18.67;;
73456;SDS011;61691;53.072;6.582;2023-05-07T07:22:16;27.98;;;17.83;;
73456;SDS011;61691;53.072;6.582;2023-05-07T07:24:43;29.38;;;18.83;;
73456;SDS011;61691;53.072;6.582;2023-05-07T07:27:09;29.48;;;17.80;;
73456;SDS011;61691;53.072;6.582;2023-05-07T07:29:36;28.75;;;17.55;;
73456;SDS011;61691;53.072;6.582;2023-05-07T07:32:03;29.00;;;17.75;;
73456;SDS011;61691;53.072;6.582;2023-05-07T07:34:30;29.13;;;18.35;;
73456;SDS011;61691;53.072;6.582;2023-05-07T07:36:56;28.70;;;18.60;;
73456;SDS011;61691;53.072;6.582;2023-05-07T07:39:23;29.23;;;18.65;;
73456;SDS011;61691;53.072;6.582;2023-05-07T07:41:50;29.65;;;18.35;;
73456;SDS011;61691;53.072;6.582;2023-05-07T07:44:16;28.60;;;18.27;;
73456;SDS011;61691;53.072;6.582;2023-05-07T07:46:43;33.25;;;19.35;;
73456;SDS011;61691;53.072;6.582;2023-05-07T07:49:10;30.92;;;19.02;;
73456;SDS011;61691;53.072;6.582;2023-05-07T07:51:37;29.48;;;18.58;;
73456;SDS011;61691;53.072;6.582;2023-05-07T07:54:04;29.73;;;19.00;;
73456;SDS011;61691;53.072;6.582;2023-05-07T07:56:31;31.13;;;19.55;;
73456;SDS011;61691;53.072;6.582;2023-05-07T07:58:59;29.90;;;18.38;;
73456;SDS011;61691;53.072;6.582;2023-05-07T08:01:26;31.85;;;19.67;;
73456;SDS011;61691;53.072;6.582;2023-05-07T08:03:53;31.38;;;18.88;;
73456;SDS011;61691;53.072;6.582;2023-05-07T08:06:20;30.75;;;18.95;;
73456;SDS011;61691;53.072;6.582;2023-05-07T08:08:47;29.77;;;18.73;;
73456;SDS011;61691;53.072;6.582;2023-05-07T08:11:14;32.40;;;18.75;;
73456;SDS011;61691;53.072;6.582;2023-05-07T08:13:40;30.25;;;18.95;;
73456;SDS011;61691;53.072;6.582;2023-05-07T08:16:07;29.95;;;17.80;;
73456;SDS011;61691;53.072;6.582;2023-05-07T08:18:34;29.60;;;18.65;;
73456;SDS011;61691;53.072;6.582;2023-05-07T08:21:01;28.40;;;17.20;;
73456;SDS011;61691;53.072;6.582;2023-05-07T08:23:27;31.58;;;19.42;;
73456;SDS011;61691;53.072;6.582;2023-05-07T08:25:54;30.17;;;19.60;;
73456;SDS011;61691;53.072;6.582;2023-05-07T08:28:21;33.67;;;20.02;;
73456;SDS011;61691;53.072;6.582;2023-05-07T08:30:48;30.45;;;19.02;;
73456;SDS011;61691;53.072;6.582;2023-05-07T08:33:15;31.40;;;20.35;;
73456;SDS011;61691;53.072;6.582;2023-05-07T08:35:41;28.92;;;18.70;;
73456;SDS011;61691;53.072;6.582;2023-05-07T08:38:08;29.70;;;17.83;;
73456;SDS011;61691;53.072;6.582;2023-05-07T08:40:38;29.20;;;18.30;;
73456;SDS011;61691;53.072;6.582;2023-05-07T08:43:07;29.70;;;18.70;;
73456;SDS011;61691;53.072;6.582;2023-05-07T08:45:34;30.67;;;19.48;;
73456;SDS011;61691;53.072;6.582;2023-05-07T08:48:02;29.77;;;18.38;;
73456;SDS011;61691;53.072;6.582;2023-05-07T08:50:31;29.75;;;19.15;;
73456;SDS011;61691;53.072;6.582;2023-05-07T08:53:02;29.47;;;17.83;;
73456;SDS011;61691;53.072;6.582;2023-05-07T08:55:30;29.30;;;18.30;;
73456;SDS011;61691;53.072;6.582;2023-05-07T08:57:57;28.38;;;17.35;;
73456;SDS011;61691;53.072;6.582;2023-05-07T09:00:24;27.80;;;17.83;;
73456;SDS011;61691;53.072;6.582;2023-05-07T09:02:52;27.70;;;17.52;;
73456;SDS011;61691;53.072;6.582;2023-05-07T09:05:19;27.63;;;17.30;;
73456;SDS011;61691;53.072;6.582;2023-05-07T09:07:46;29.17;;;16.55;;
73456;SDS011;61691;53.072;6.582;2023-05-07T09:10:13;28.80;;;17.70;;
73456;SDS011;61691;53.072;6.582;2023-05-07T09:12:40;27.83;;;16.08;;
73456;SDS011;61691;53.072;6.582;2023-05-07T09:15:07;28.00;;;17.23;;
73456;SDS011;61691;53.072;6.582;2023-05-07T09:17:35;29.20;;;17.55;;
73456;SDS011;61691;53.072;6.582;2023-05-07T09:20:03;27.45;;;16.27;;
73456;SDS011;61691;53.072;6.582;2023-05-07T09:22:35;26.38;;;15.85;;
73456;SDS011;61691;53.072;6.582;2023-05-07T09:25:03;25.58;;;15.38;;
73456;SDS011;61691;53.072;6.582;2023-05-07T09:27:32;26.15;;;16.10;;
73456;SDS011;61691;53.072;6.582;2023-05-07T09:29:59;27.00;;;15.80;;
73456;SDS011;61691;53.072;6.582;2023-05-07T09:32:25;27.60;;;17.05;;
73456;SDS011;61691;53.072;6.582;2023-05-07T09:34:53;25.58;;;15.00;;
73456;SDS011;61691;53.072;6.582;2023-05-07T09:37:21;27.08;;;15.80;;
73456;SDS011;61691;53.072;6.582;2023-05-07T09:39:48;26.42;;;15.05;;
73456;SDS011;61691;53.072;6.582;2023-05-07T09:42:15;25.40;;;15.63;;
73456;SDS011;61691;53.072;6.582;2023-05-07T09:44:45;26.25;;;15.48;;
73456;SDS011;61691;53.072;6.582;2023-05-07T09:47:14;25.20;;;15.48;;
73456;SDS011;61691;53.072;6.582;2023-05-07T09:49:46;26.75;;;16.63;;
73456;SDS011;61691;53.072;6.582;2023-05-07T09:52:14;28.02;;;16.77;;
73456;SDS011;61691;53.072;6.582;2023-05-07T09:54:42;26.48;;;15.93;;
73456;SDS011;61691;53.072;6.582;2023-05-07T09:57:11;25.95;;;15.10;;
73456;SDS011;61691;53.072;6.582;2023-05-07T09:59:41;24.52;;;14.48;;
73456;SDS011;61691;53.072;6.582;2023-05-07T10:02:10;25.23;;;15.73;;
73456;SDS011;61691;53.072;6.582;2023-05-07T10:04:37;24.60;;;14.60;;
73456;SDS011;61691;53.072;6.582;2023-05-07T10:07:05;26.20;;;15.50;;
73456;SDS011;61691;53.072;6.582;2023-05-07T10:09:34;24.75;;;14.63;;
73456;SDS011;61691;53.072;6.582;2023-05-07T10:12:05;26.27;;;14.77;;
73456;SDS011;61691;53.072;6.582;2023-05-07T10:14:33;27.45;;;15.55;;
73456;SDS011;61691;53.072;6.582;2023-05-07T10:17:00;25.27;;;14.07;;
73456;SDS011;61691;53.072;6.582;2023-05-07T10:19:29;25.83;;;15.07;;
73456;SDS011;61691;53.072;6.582;2023-05-07T10:21:59;24.02;;;15.10;;
73456;SDS011;61691;53.072;6.582;2023-05-07T10:24:31;24.08;;;14.02;;
73456;SDS011;61691;53.072;6.582;2023-05-07T10:27:00;23.88;;;15.13;;
73456;SDS011;61691;53.072;6.582;2023-05-07T10:34:50;25.73;;;14.80;;
73456;SDS011;61691;53.072;6.582;2023-05-07T10:37:22;27.88;;;14.68;;
73456;SDS011;61691;53.072;6.582;2023-05-07T10:39:51;24.77;;;13.68;;
73456;SDS011;61691;53.072;6.582;2023-05-07T10:42:19;24.35;;;15.10;;
73456;SDS011;61691;53.072;6.582;2023-05-07T10:44:45;25.08;;;14.05;;
73456;SDS011;61691;53.072;6.582;2023-05-07T10:47:16;26.85;;;15.02;;
73456;SDS011;61691;53.072;6.582;2023-05-07T10:52:15;25.10;;;14.77;;
73456;SDS011;61691;53.072;6.582;2023-05-07T10:57:41;24.05;;;14.20;;
73456;SDS011;61691;53.072;6.582;2023-05-07T11:03:04;22.70;;;13.10;;
73456;SDS011;61691;53.072;6.582;2023-05-07T11:05:33;24.00;;;14.35;;
73456;SDS011;61691;53.072;6.582;2023-05-07T11:08:03;23.55;;;13.50;;
73456;SDS011;61691;53.072;6.582;2023-05-07T11:21:35;25.20;;;13.90;;
73456;SDS011;61691;53.072;6.582;2023-05-07T11:24:03;24.02;;;13.48;;
73456;SDS011;61691;53.072;6.582;2023-05-07T11:26:41;23.90;;;13.32;;
73456;SDS011;61691;53.072;6.582;2023-05-07T11:29:17;23.58;;;13.07;;
73456;SDS011;61691;53.072;6.582;2023-05-07T11:31:51;22.42;;;13.20;;
73456;SDS011;61691;53.072;6.582;2023-05-07T11:34:23;23.40;;;13.57;;
73456;SDS011;61691;53.072;6.582;2023-05-07T11:36:51;22.95;;;13.35;;
73456;SDS011;61691;53.072;6.582;2023-05-07T11:39:25;22.92;;;13.55;;
73456;SDS011;61691;53.072;6.582;2023-05-07T11:41:56;22.33;;;13.18;;
73456;SDS011;61691;53.072;6.582;2023-05-07T11:44:23;23.77;;;13.30;;
73456;SDS011;61691;53.072;6.582;2023-05-07T11:46:50;24.00;;;13.55;;
73456;SDS011;61691;53.072;6.582;2023-05-07T11:49:17;21.98;;;13.32;;
73456;SDS011;61691;53.072;6.582;2023-05-07T11:51:44;23.15;;;13.57;;
73456;SDS011;61691;53.072;6.582;2023-05-07T11:54:15;24.70;;;12.85;;
73456;SDS011;61691;53.072;6.582;2023-05-07T11:56:43;22.48;;;13.00;;
73456;SDS011;61691;53.072;6.582;2023-05-07T11:59:10;22.63;;;12.98;;
73456;SDS011;61691;53.072;6.582;2023-05-07T12:01:37;21.73;;;13.10;;
73456;SDS011;61691;53.072;6.582;2023-05-07T12:04:04;24.08;;;13.63;;
73456;SDS011;61691;53.072;6.582;2023-05-07T12:06:35;22.17;;;12.95;;
73456;SDS011;61691;53.072;6.582;2023-05-07T12:09:02;22.77;;;12.88;;
73456;SDS011;61691;53.072;6.582;2023-05-07T12:11:30;21.63;;;11.95;;
73456;SDS011;61691;53.072;6.582;2023-05-07T12:13:57;23.27;;;12.52;;
73456;SDS011;61691;53.072;6.582;2023-05-07T12:16:25;21.73;;;12.48;;
73456;SDS011;61691;53.072;6.582;2023-05-07T12:18:53;21.45;;;12.50;;
73456;SDS011;61691;53.072;6.582;2023-05-07T12:21:21;23.95;;;13.10;;
73456;SDS011;61691;53.072;6.582;2023-05-07T12:23:49;21.80;;;11.90;;
73456;SDS011;61691;53.072;6.582;2023-05-07T12:26:16;21.20;;;12.80;;
73456;SDS011;61691;53.072;6.582;2023-05-07T12:28:46;21.25;;;12.23;;
73456;SDS011;61691;53.072;6.582;2023-05-07T12:31:13;21.48;;;12.57;;
73456;SDS011;61691;53.072;6.582;2023-05-07T12:33:41;21.88;;;12.65;;
73456;SDS011;61691;53.072;6.582;2023-05-07T12:36:08;22.08;;;13.07;;
73456;SDS011;61691;53.072;6.582;2023-05-07T12:38:38;22.48;;;12.43;;
73456;SDS011;61691;53.072;6.582;2023-05-07T12:41:07;22.13;;;12.98;;
73456;SDS011;61691;53.072;6.582;2023-05-07T12:43:35;22.85;;;13.27;;
73456;SDS011;61691;53.072;6.582;2023-05-07T12:46:06;22.70;;;12.55;;
73456;SDS011;61691;53.072;6.582;2023-05-07T12:48:35;21.52;;;12.13;;
73456;SDS011;61691;53.072;6.582;2023-05-07T12:51:04;22.40;;;12.77;;
73456;SDS011;61691;53.072;6.582;2023-05-07T12:53:32;21.27;;;12.57;;
73456;SDS011;61691;53.072;6.582;2023-05-07T12:55:59;21.83;;;11.82;;
73456;SDS011;61691;53.072;6.582;2023-05-07T12:58:30;21.63;;;12.20;;
73456;SDS011;61691;53.072;6.582;2023-05-07T13:00:59;20.85;;;11.73;;
73456;SDS011;61691;53.072;6.582;2023-05-07T13:03:29;21.80;;;12.80;;
73456;SDS011;61691;53.072;6.582;2023-05-07T13:06:00;21.67;;;12.80;;
73456;SDS011;61691;53.072;6.582;2023-05-07T13:08:30;21.10;;;11.98;;
73456;SDS011;61691;53.072;6.582;2023-05-07T13:10:58;21.67;;;12.68;;
73456;SDS011;61691;53.072;6.582;2023-05-07T13:13:34;22.55;;;12.05;;
73456;SDS011;61691;53.072;6.582;2023-05-07T13:16:02;20.40;;;11.88;;
73456;SDS011;61691;53.072;6.582;2023-05-07T13:18:30;22.30;;;12.35;;
73456;SDS011;61691;53.072;6.582;2023-05-07T13:20:58;22.20;;;11.80;;
73456;SDS011;61691;53.072;6.582;2023-05-07T13:23:26;22.05;;;12.48;;
73456;SDS011;61691;53.072;6.582;2023-05-07T13:25:53;21.65;;;12.02;;
73456;SDS011;61691;53.072;6.582;2023-05-07T13:28:25;21.63;;;12.10;;
73456;SDS011;61691;53.072;6.582;2023-05-07T13:30:53;22.02;;;12.65;;
73456;SDS011;61691;53.072;6.582;2023-05-07T13:33:21;22.13;;;12.13;;
73456;SDS011;61691;53.072;6.582;2023-05-07T13:35:47;22.85;;;12.80;;
73456;SDS011;61691;53.072;6.582;2023-05-07T13:38:14;21.30;;;12.25;;
73456;SDS011;61691;53.072;6.582;2023-05-07T13:40:42;21.35;;;11.90;;
73456;SDS011;61691;53.072;6.582;2023-05-07T13:43:09;21.73;;;12.15;;
73456;SDS011;61691;53.072;6.582;2023-05-07T13:45:37;21.35;;;11.95;;
73456;SDS011;61691;53.072;6.582;2023-05-07T13:48:03;23.60;;;12.32;;
73456;SDS011;61691;53.072;6.582;2023-05-07T13:50:30;20.23;;;11.95;;
73456;SDS011;61691;53.072;6.582;2023-05-07T13:52:57;22.13;;;11.95;;
73456;SDS011;61691;53.072;6.582;2023-05-07T13:55:24;19.80;;;11.43;;
73456;SDS011;61691;53.072;6.582;2023-05-07T13:57:59;20.50;;;11.75;;
73456;SDS011;61691;53.072;6.582;2023-05-07T14:00:27;22.27;;;12.50;;
73456;SDS011;61691;53.072;6.582;2023-05-07T14:02:55;21.17;;;11.68;;
73456;SDS011;61691;53.072;6.582;2023-05-07T14:05:23;21.35;;;11.18;;
73456;SDS011;61691;53.072;6.582;2023-05-07T14:07:51;20.88;;;11.75;;
73456;SDS011;61691;53.072;6.582;2023-05-07T14:10:18;21.50;;;12.85;;
73456;SDS011;61691;53.072;6.582;2023-05-07T14:12:45;20.48;;;12.05;;
73456;SDS011;61691;53.072;6.582;2023-05-07T14:15:13;20.50;;;11.93;;
73456;SDS011;61691;53.072;6.582;2023-05-07T14:17:40;22.50;;;12.60;;
73456;SDS011;61691;53.072;6.582;2023-05-07T14:20:07;21.70;;;12.02;;
73456;SDS011;61691;53.072;6.582;2023-05-07T14:22:34;20.38;;;10.90;;
73456;SDS011;61691;53.072;6.582;2023-05-07T14:25:01;19.45;;;10.50;;
73456;SDS011;61691;53.072;6.582;2023-05-07T14:27:32;20.55;;;11.13;;
73456;SDS011;61691;53.072;6.582;2023-05-07T14:29:59;20.35;;;11.13;;
73456;SDS011;61691;53.072;6.582;2023-05-07T14:32:25;21.10;;;11.65;;
73456;SDS011;61691;53.072;6.582;2023-05-07T14:34:52;19.95;;;10.90;;
73456;SDS011;61691;53.072;6.582;2023-05-07T14:37:19;19.27;;;10.55;;
73456;SDS011;61691;53.072;6.582;2023-05-07T14:39:46;20.33;;;10.90;;
73456;SDS011;61691;53.072;6.582;2023-05-07T14:42:16;19.25;;;10.65;;
73456;SDS011;61691;53.072;6.582;2023-05-07T14:44:44;20.52;;;10.88;;
73456;SDS011;61691;53.072;6.582;2023-05-07T14:47:12;20.17;;;10.68;;